Time;durP1;ratioP1;P1;durP2;ratioP2;P2;SDS_P1;SDS_P2;PMS_P1;PMS_P2;Temp;Humidity;BMP_temperature;BMP_pressure;BME280_temperature;BME280_humidity;BME280_pressure;Samples;Min_cycle;Max_cycle;Signal;HPM_P1;HPM_P2
2021/07/25 00:01:16;;;;;;;10.20;9.20;;;21.60;99.90;;;;;;4955091;28;20170;-65
2021/07/25 00:03:42;;;;;;;11.77;9.40;;;21.60;99.90;;;;;;4955401;28;20569;-66
2021/07/25 00:06:15;;;;;;;9.93;8.93;;;21.60;99.90;;;;;;4954742;28;20248;-66
2021/07/25 00:08:40;;;;;;;11.10;10.00;;;21.80;99.90;;;;;;4954830;29;20166;-65
2021/07/25 00:11:06;;;;;;;10.73;8.80;;;21.90;99.90;;;;;;4955291;29;20413;-66
2021/07/25 00:13:36;;;;;;;10.13;9.13;;;21.90;99.90;;;;;;4955323;29;20180;-66
2021/07/25 00:16:02;;;;;;;11.53;10.37;;;21.90;99.90;;;;;;4955351;28;20234;-66
2021/07/25 00:18:28;;;;;;;9.10;8.20;;;21.90;99.90;;;;;;4955280;28;20453;-66
2021/07/25 00:20:53;;;;;;;10.60;9.50;;;21.90;99.90;;;;;;4954888;29;20414;-66
2021/07/25 00:23:21;;;;;;;11.10;8.67;;;21.90;99.90;;;;;;4955256;29;20197;-66
2021/07/25 00:25:48;;;;;;;9.80;9.00;;;21.90;99.90;;;;;;4954409;29;20237;-66
2021/07/25 00:28:17;;;;;;;14.77;9.70;;;21.90;99.90;;;;;;4955122;28;20784;-66
2021/07/25 00:30:43;;;;;;;10.27;9.27;;;22.00;99.90;;;;;;4954995;28;20433;-66
2021/07/25 00:33:09;;;;;;;9.80;8.90;;;22.00;99.90;;;;;;4954944;29;20409;-65
2021/07/25 00:35:34;;;;;;;10.80;9.80;;;22.00;99.90;;;;;;4954546;28;20418;-66
2021/07/25 00:38:00;;;;;;;11.63;9.70;;;22.00;99.90;;;;;;4954779;29;20174;-66
2021/07/25 00:40:40;;;;;;;9.77;8.87;;;21.90;99.90;;;;;;4955157;29;20233;-66
2021/07/25 00:43:06;;;;;;;9.20;8.30;;;21.80;99.90;;;;;;4949212;29;20210;-65
2021/07/25 00:45:32;;;;;;;9.70;8.80;;;21.90;99.90;;;;;;4941653;29;20552;-66
2021/07/25 00:47:58;;;;;;;11.03;9.93;;;21.90;99.90;;;;;;4936014;29;20269;-66
2021/07/25 00:50:25;;;;;;;9.73;8.77;;;21.90;99.90;;;;;;4935924;29;20414;-66
2021/07/25 00:52:51;;;;;;;12.10;11.00;;;21.90;99.90;;;;;;4935412;29;20433;-66
2021/07/25 00:55:19;;;;;;;10.93;10.03;;;21.90;99.90;;;;;;4935888;29;20422;-66
2021/07/25 00:57:45;;;;;;;12.67;10.77;;;21.80;99.90;;;;;;4961937;23;20482;-63
2021/07/25 01:00:12;;;;;;;10.17;9.13;;;21.80;99.90;;;;;;4936233;29;20411;-63
2021/07/25 01:03:04;;;;;;;10.37;9.27;;;21.60;99.90;;;;;;4937146;29;20166;-63
2021/07/25 01:05:59;;;;;;;10.30;9.40;;;21.70;99.90;;;;;;4953314;29;20441;-63
2021/07/25 01:08:40;;;;;;;11.37;9.10;;;21.80;99.90;;;;;;4899854;29;20418;-63
2021/07/25 01:11:07;;;;;;;9.67;8.67;;;21.70;99.90;;;;;;4916376;29;20442;-63
2021/07/25 01:13:37;;;;;;;8.93;8.03;;;21.70;99.90;;;;;;4916277;29;20971;-63
2021/07/25 01:16:03;;;;;;;10.10;9.10;;;21.80;99.90;;;;;;4927539;29;20458;-63
2021/07/25 01:18:29;;;;;;;9.80;8.87;;;21.80;99.90;;;;;;4935251;29;20398;-63
2021/07/25 01:20:55;;;;;;;10.33;9.20;;;21.70;99.90;;;;;;4938256;29;20417;-63
2021/07/25 01:23:24;;;;;;;11.70;9.47;;;21.70;99.90;;;;;;4938548;29;20655;-63
2021/07/25 01:25:57;;;;;;;11.83;8.77;;;21.70;99.90;;;;;;4938852;29;20202;-63
2021/07/25 01:28:25;;;;;;;8.90;7.97;;;21.70;99.90;;;;;;4938528;29;20415;-63
2021/07/25 01:30:55;;;;;;;9.93;8.90;;;21.70;99.90;;;;;;4938487;29;20424;-63
2021/07/25 01:33:28;;;;;;;9.20;8.30;;;21.70;99.90;;;;;;4938540;29;20413;-64
2021/07/25 01:35:56;;;;;;;8.73;7.63;;;21.80;99.90;;;;;;4934603;29;20423;-64
2021/07/25 01:38:23;;;;;;;10.20;9.17;;;21.60;99.90;;;;;;4919213;29;20411;-64
2021/07/25 01:41:06;;;;;;;10.57;9.53;;;21.60;99.90;;;;;;4919278;29;20403;-63
2021/07/25 01:43:35;;;;;;;10.57;9.60;;;21.60;99.90;;;;;;4919647;29;20395;-64
2021/07/25 01:46:00;;;;;;;10.07;9.10;;;21.70;99.90;;;;;;4919161;29;20448;-63
2021/07/25 01:48:26;;;;;;;10.10;9.17;;;21.70;99.90;;;;;;4919602;29;20416;-64
2021/07/25 01:50:51;;;;;;;8.30;7.60;;;21.60;99.90;;;;;;4919237;29;20175;-63
2021/07/25 01:53:17;;;;;;;10.57;9.17;;;21.50;99.90;;;;;;4936017;29;20226;-63
2021/07/25 01:55:43;;;;;;;11.03;9.93;;;21.40;99.90;;;;;;4938189;29;20174;-63
2021/07/25 01:58:09;;;;;;;9.90;9.00;;;21.40;99.90;;;;;;4937950;29;20265;-63
2021/07/25 02:00:35;;;;;;;10.60;9.63;;;21.20;99.90;;;;;;4936917;29;20791;-63
2021/07/25 02:03:00;;;;;;;10.90;9.57;;;21.10;99.90;;;;;;4938538;29;20587;-64
2021/07/25 02:05:26;;;;;;;10.87;9.87;;;21.10;99.90;;;;;;4938004;29;20210;-64
2021/07/25 02:07:52;;;;;;;9.60;8.80;;;21.20;99.90;;;;;;4919330;29;20223;-63
2021/07/25 02:10:17;;;;;;;10.70;9.40;;;21.20;99.90;;;;;;4919893;29;20527;-63
2021/07/25 02:12:43;;;;;;;10.23;9.23;;;21.30;99.90;;;;;;4919413;29;20172;-63
2021/07/25 02:15:10;;;;;;;11.40;9.80;;;21.40;99.90;;;;;;4918859;29;20183;-63
2021/07/25 02:17:35;;;;;;;11.53;10.43;;;21.50;99.90;;;;;;4918739;29;20195;-63
2021/07/25 02:20:01;;;;;;;10.90;9.77;;;21.60;99.90;;;;;;4918461;29;20418;-63
2021/07/25 02:22:26;;;;;;;11.27;9.93;;;21.60;99.90;;;;;;4918894;29;20693;-63
2021/07/25 02:24:52;;;;;;;11.60;10.60;;;21.50;99.90;;;;;;4918361;29;20195;-63
2021/07/25 02:27:18;;;;;;;11.07;9.97;;;21.60;99.90;;;;;;4918715;29;20200;-63
2021/07/25 02:29:43;;;;;;;9.17;8.37;;;21.60;99.90;;;;;;4914002;29;20168;-63
2021/07/25 02:32:09;;;;;;;10.17;9.10;;;21.60;99.90;;;;;;4900498;29;20246;-63
2021/07/25 02:34:34;;;;;;;9.60;8.57;;;21.60;99.90;;;;;;4900050;29;20172;-63
2021/07/25 02:37:00;;;;;;;12.73;11.10;;;21.60;99.90;;;;;;4899950;29;20208;-63
2021/07/25 02:39:26;;;;;;;10.43;9.43;;;21.50;99.90;;;;;;4900635;29;20239;-63
2021/07/25 02:41:52;;;;;;;11.90;10.90;;;21.40;99.90;;;;;;4899691;29;20176;-63
2021/07/25 02:44:18;;;;;;;11.47;10.47;;;21.20;99.90;;;;;;4899311;29;20412;-63
2021/07/25 02:46:43;;;;;;;11.00;9.87;;;21.10;99.90;;;;;;4899181;29;20299;-64
2021/07/25 02:49:09;;;;;;;11.30;10.20;;;21.20;99.90;;;;;;4899459;29;20180;-63
2021/07/25 02:51:35;;;;;;;12.73;11.53;;;21.10;99.90;;;;;;4906106;29;20628;-63
2021/07/25 02:54:00;;;;;;;13.73;12.03;;;21.10;99.90;;;;;;4936849;29;20222;-63
2021/07/25 02:56:26;;;;;;;11.10;9.97;;;21.10;99.90;;;;;;4936755;29;20266;-64
2021/07/25 02:58:51;;;;;;;12.17;11.07;;;21.20;99.90;;;;;;4937434;29;20569;-63
2021/07/25 03:01:18;;;;;;;12.63;10.63;;;21.00;99.90;;;;;;4937121;29;20589;-64
2021/07/25 03:03:44;;;;;;;9.90;9.00;;;20.90;99.90;;;;;;4936624;29;20273;-63
2021/07/25 03:06:09;;;;;;;12.27;10.03;;;21.00;99.90;;;;;;4930220;29;20463;-64
2021/07/25 03:08:36;;;;;;;11.87;9.73;;;21.10;99.90;;;;;;4917566;29;20828;-63
2021/07/25 03:11:07;;;;;;;10.80;9.80;;;21.10;99.90;;;;;;4918075;29;20176;-63
2021/07/25 03:13:32;;;;;;;13.50;12.10;;;21.20;99.90;;;;;;4917900;29;20403;-63
2021/07/25 03:16:05;;;;;;;10.60;9.27;;;21.20;99.90;;;;;;4917597;29;20408;-63
2021/07/25 03:18:32;;;;;;;10.87;9.90;;;21.30;99.90;;;;;;4916432;29;20246;-63
2021/07/25 03:20:58;;;;;;;12.07;10.87;;;21.20;99.90;;;;;;4917405;29;20451;-63
2021/07/25 03:23:24;;;;;;;10.30;9.40;;;21.20;99.90;;;;;;4917607;29;20443;-63
2021/07/25 03:25:50;;;;;;;10.00;9.00;;;21.10;99.90;;;;;;4917383;29;20501;-63
2021/07/25 03:28:16;;;;;;;10.50;9.50;;;21.10;99.90;;;;;;4917393;29;20191;-63
2021/07/25 03:30:41;;;;;;;10.67;9.60;;;21.10;99.90;;;;;;4917687;29;20545;-64
2021/07/25 03:33:09;;;;;;;10.97;9.87;;;21.20;99.90;;;;;;4917302;29;20404;-63
2021/07/25 03:35:35;;;;;;;12.00;10.90;;;21.20;99.90;;;;;;4917315;29;20315;-63
2021/07/25 03:38:01;;;;;;;10.60;9.50;;;21.10;99.90;;;;;;4917275;29;20494;-63
2021/07/25 03:40:27;;;;;;;11.70;10.50;;;21.10;99.90;;;;;;4917303;29;20894;-62
2021/07/25 03:42:52;;;;;;;11.00;10.00;;;20.90;99.90;;;;;;4916500;29;20263;-63
2021/07/25 03:45:18;;;;;;;12.10;10.90;;;21.00;99.90;;;;;;4917097;29;20487;-63
2021/07/25 03:47:44;;;;;;;11.13;9.10;;;21.00;99.90;;;;;;4917119;29;20187;-63
2021/07/25 03:50:10;;;;;;;11.10;10.10;;;20.90;99.90;;;;;;4919100;29;20257;-63
2021/07/25 03:52:36;;;;;;;11.27;10.17;;;20.90;99.90;;;;;;4918147;29;20171;-63
2021/07/25 03:55:05;;;;;;;11.17;9.73;;;20.90;99.90;;;;;;4916806;29;20506;-63
2021/07/25 03:57:32;;;;;;;10.73;9.67;;;20.80;99.90;;;;;;4934735;29;20830;-63
2021/07/25 03:59:58;;;;;;;10.40;9.17;;;20.80;99.90;;;;;;4936693;29;20505;-63
2021/07/25 04:02:23;;;;;;;10.53;9.47;;;20.80;99.90;;;;;;4936690;29;20509;-63
2021/07/25 04:04:49;;;;;;;10.23;9.03;;;20.80;99.90;;;;;;4936100;29;20291;-63
2021/07/25 04:07:14;;;;;;;10.57;9.53;;;20.60;99.90;;;;;;4921177;29;20196;-63
2021/07/25 04:09:40;;;;;;;10.70;9.60;;;20.70;99.90;;;;;;4934411;29;20547;-63
2021/07/25 04:12:06;;;;;;;9.43;8.63;;;20.80;99.90;;;;;;4935874;29;20254;-63
2021/07/25 04:14:32;;;;;;;10.27;8.90;;;20.80;99.90;;;;;;4936098;29;20198;-63
2021/07/25 04:16:57;;;;;;;9.03;8.13;;;20.80;99.90;;;;;;4935686;29;20848;-63
2021/07/25 04:19:23;;;;;;;8.90;8.00;;;20.90;99.90;;;;;;4935754;29;20175;-63
2021/07/25 04:21:49;;;;;;;10.20;9.20;;;20.90;99.90;;;;;;4935712;29;20226;-63
2021/07/25 04:24:14;;;;;;;10.20;9.17;;;21.00;99.90;;;;;;4935489;29;20257;-63
2021/07/25 04:26:40;;;;;;;9.27;8.47;;;21.10;99.90;;;;;;4935567;29;20207;-63
2021/07/25 04:29:06;;;;;;;8.77;7.97;;;21.10;99.90;;;;;;4935697;29;20171;-63
2021/07/25 04:31:32;;;;;;;10.73;9.73;;;21.20;99.90;;;;;;4935927;29;20167;-63
2021/07/25 04:33:59;;;;;;;9.40;8.60;;;21.20;99.90;;;;;;4935475;29;20182;-63
2021/07/25 04:36:29;;;;;;;9.20;8.40;;;21.10;99.90;;;;;;4927406;29;20441;-63
2021/07/25 04:38:56;;;;;;;10.57;9.07;;;21.20;99.90;;;;;;4916388;29;20817;-63
2021/07/25 04:41:24;;;;;;;10.87;9.77;;;21.30;99.90;;;;;;4903025;29;20448;-63
2021/07/25 04:44:04;;;;;;;9.33;8.43;;;21.30;99.90;;;;;;4897728;29;20413;-63
2021/07/25 04:46:32;;;;;;;11.33;10.40;;;21.30;99.90;;;;;;4897846;29;20816;-63
2021/07/25 04:49:15;;;;;;;9.90;8.90;;;21.10;99.90;;;;;;4897694;29;20409;-63
2021/07/25 04:51:42;;;;;;;8.97;8.10;;;21.10;99.90;;;;;;4897593;29;20404;-63
2021/07/25 04:54:11;;;;;;;8.97;8.17;;;21.20;99.90;;;;;;4899897;29;20435;-63
2021/07/25 04:56:57;;;;;;;8.17;7.40;;;21.30;99.90;;;;;;4901290;29;20447;-63
2021/07/25 04:59:30;;;;;;;10.23;8.63;;;21.30;99.90;;;;;;4901498;29;20396;-63
2021/07/25 05:02:03;;;;;;;9.90;8.90;;;21.20;99.90;;;;;;4901278;29;20886;-64
2021/07/25 05:04:29;;;;;;;11.97;10.40;;;21.10;99.90;;;;;;4901202;29;20398;-64
2021/07/25 05:06:55;;;;;;;9.50;8.53;;;21.10;99.90;;;;;;4912809;29;20458;-64
2021/07/25 05:09:21;;;;;;;9.10;8.40;;;21.20;99.90;;;;;;4919714;29;20424;-64
2021/07/25 05:11:56;;;;;;;9.83;8.83;;;21.20;99.90;;;;;;4919914;29;20976;-63
2021/07/25 05:14:30;;;;;;;10.67;9.67;;;21.30;99.90;;;;;;4920927;29;20520;-63
2021/07/25 05:17:10;;;;;;;9.77;8.97;;;21.30;99.90;;;;;;4920055;29;20443;-63
2021/07/25 05:19:46;;;;;;;10.13;9.17;;;21.40;99.90;;;;;;4920115;29;20392;-63
2021/07/25 05:22:20;;;;;;;8.70;7.90;;;21.50;99.90;;;;;;4919778;29;20431;-64
2021/07/25 05:24:46;;;;;;;8.83;7.93;;;21.60;99.90;;;;;;4919546;29;20404;-63
2021/07/25 05:27:19;;;;;;;9.87;9.03;;;21.70;99.90;;;;;;4918784;29;20433;-63
2021/07/25 05:29:46;;;;;;;9.40;8.50;;;21.70;99.90;;;;;;4920177;29;20807;-63
2021/07/25 05:32:13;;;;;;;12.30;8.83;;;21.70;99.90;;;;;;4920352;29;20415;-63
2021/07/25 05:34:38;;;;;;;9.20;8.20;;;21.70;99.90;;;;;;4919615;29;20478;-63
2021/07/25 05:37:04;;;;;;;9.43;8.53;;;21.60;99.90;;;;;;4919581;29;20440;-63
2021/07/25 05:39:29;;;;;;;10.00;9.00;;;21.50;99.90;;;;;;4919312;29;20279;-63
2021/07/25 05:41:55;;;;;;;10.00;9.10;;;21.50;99.90;;;;;;4919674;29;20219;-63
2021/07/25 05:44:20;;;;;;;11.73;10.60;;;21.60;99.90;;;;;;4922681;29;20206;-63
2021/07/25 05:46:46;;;;;;;10.90;9.80;;;21.60;99.90;;;;;;4938372;29;20688;-63
2021/07/25 05:49:11;;;;;;;10.50;9.60;;;21.40;99.90;;;;;;4941045;29;20170;-63
2021/07/25 05:51:37;;;;;;;10.53;9.53;;;21.40;99.90;;;;;;4939203;29;20203;-63
2021/07/25 05:54:03;;;;;;;10.10;9.20;;;21.50;99.90;;;;;;4938601;29;20534;-63
2021/07/25 05:56:28;;;;;;;11.27;9.13;;;21.50;99.90;;;;;;4939183;29;20206;-63
2021/07/25 05:58:54;;;;;;;12.67;8.47;;;21.60;99.90;;;;;;4939477;29;20640;-63
2021/07/25 06:01:19;;;;;;;9.10;8.30;;;21.70;99.90;;;;;;4938455;29;20175;-63
2021/07/25 06:03:45;;;;;;;8.80;8.03;;;21.80;99.90;;;;;;4938189;29;20166;-64
2021/07/25 06:06:10;;;;;;;11.50;9.00;;;21.70;99.90;;;;;;4930572;29;20199;-64
2021/07/25 06:08:36;;;;;;;8.40;7.70;;;21.80;99.90;;;;;;4918931;29;20175;-64
2021/07/25 06:11:02;;;;;;;9.43;8.63;;;21.80;99.90;;;;;;4918872;29;20168;-63
2021/07/25 06:13:27;;;;;;;8.40;7.70;;;21.80;99.90;;;;;;4918816;29;20164;-64
2021/07/25 06:15:53;;;;;;;8.90;8.10;;;21.90;99.90;;;;;;4918970;29;20176;-64
2021/07/25 06:18:18;;;;;;;9.23;8.40;;;22.00;99.90;;;;;;4918871;29;20628;-64
2021/07/25 06:20:44;;;;;;;9.53;8.53;;;22.20;99.90;;;;;;4918388;29;20175;-63
2021/07/25 06:23:13;;;;;;;8.37;7.73;;;22.20;99.90;;;;;;4918628;29;20171;-63
2021/07/25 06:25:39;;;;;;;8.77;7.97;;;22.20;99.90;;;;;;4918427;29;20294;-63
2021/07/25 06:28:05;;;;;;;8.40;7.70;;;22.20;99.90;;;;;;4918719;29;20455;-64
2021/07/25 06:30:31;;;;;;;8.70;7.60;;;22.30;99.90;;;;;;4918968;29;20175;-63
2021/07/25 06:32:59;;;;;;;8.77;8.00;;;22.40;99.90;;;;;;4918583;29;20399;-63
2021/07/25 06:35:32;;;;;;;7.70;7.07;;;22.50;99.90;;;;;;4918339;29;20415;-65
2021/07/25 06:38:03;;;;;;;8.23;7.50;;;22.50;99.90;;;;;;4918662;29;20431;-64
2021/07/25 06:40:29;;;;;;;7.90;7.20;;;22.50;99.90;;;;;;4918432;29;20424;-63
2021/07/25 06:42:57;;;;;;;8.07;7.37;;;22.70;99.90;;;;;;4919803;29;20482;-64
2021/07/25 06:45:23;;;;;;;8.40;7.70;;;22.90;99.90;;;;;;4919434;29;20459;-64
2021/07/25 06:47:50;;;;;;;8.00;7.20;;;23.30;99.90;;;;;;4915007;29;20432;-64
2021/07/25 06:50:20;;;;;;;7.40;6.77;;;23.60;99.90;;;;;;4935378;29;20418;-63
2021/07/25 06:52:47;;;;;;;9.17;8.27;;;23.60;99.90;;;;;;4937377;29;20399;-64
2021/07/25 06:55:13;;;;;;;11.43;8.20;;;23.80;99.90;;;;;;4936980;29;20595;-64
2021/07/25 06:57:39;;;;;;;8.60;7.87;;;23.60;99.90;;;;;;4966912;23;20485;-66
2021/07/25 07:00:06;;;;;;;9.73;8.73;;;23.80;99.90;;;;;;4954444;29;20421;-65
2021/07/25 07:03:04;;;;;;;10.33;9.33;;;24.20;99.90;;;;;;4956011;28;20408;-65
2021/07/25 07:05:32;;;;;;;10.73;8.93;;;24.40;99.90;;;;;;4908803;29;20459;-65
2021/07/25 07:07:59;;;;;;;8.90;7.97;;;24.30;99.90;;;;;;4955971;28;20509;-65
2021/07/25 07:10:28;;;;;;;9.87;8.87;;;24.70;99.90;;;;;;4955852;29;20406;-65
2021/07/25 07:12:55;;;;;;;7.97;7.37;;;25.00;99.90;;;;;;4956135;29;20409;-66
2021/07/25 07:15:22;;;;;;;9.20;8.30;;;25.10;99.90;;;;;;4955811;29;20770;-66
2021/07/25 07:17:49;;;;;;;7.77;7.07;;;24.80;99.90;;;;;;4939266;28;20513;-66
2021/07/25 07:20:15;;;;;;;8.67;7.90;;;24.60;99.90;;;;;;4936799;29;20421;-66
2021/07/25 07:22:40;;;;;;;8.93;8.13;;;24.60;99.90;;;;;;4936417;29;20407;-66
2021/07/25 07:25:07;;;;;;;8.50;7.70;;;24.80;99.90;;;;;;4936499;29;20238;-66
2021/07/25 07:27:34;;;;;;;8.90;8.00;;;24.50;99.90;;;;;;4936167;29;20187;-66
2021/07/25 07:30:00;;;;;;;7.23;6.53;;;24.40;99.90;;;;;;4937107;29;20439;-66
2021/07/25 07:32:27;;;;;;;7.80;7.07;;;24.30;99.90;;;;;;4936439;29;20419;-66
2021/07/25 07:34:52;;;;;;;8.73;7.93;;;24.60;99.90;;;;;;4936773;29;20414;-66
2021/07/25 07:37:18;;;;;;;8.40;7.60;;;24.60;99.90;;;;;;4951213;28;20434;-66
2021/07/25 07:39:44;;;;;;;6.90;6.30;;;24.50;99.90;;;;;;4955467;29;20214;-66
2021/07/25 07:42:11;;;;;;;8.47;7.67;;;24.60;99.90;;;;;;4955345;29;20542;-66
2021/07/25 07:44:38;;;;;;;6.60;5.90;;;24.70;99.90;;;;;;4955640;29;20421;-65
2021/07/25 07:47:04;;;;;;;7.37;6.73;;;24.80;99.90;;;;;;4955073;28;20506;-65
2021/07/25 07:49:30;;;;;;;7.80;6.33;;;24.90;99.90;;;;;;4955295;29;20472;-66
2021/07/25 07:51:56;;;;;;;8.03;7.20;;;25.00;99.90;;;;;;4955083;29;20405;-66
2021/07/25 07:54:21;;;;;;;7.40;6.60;;;25.10;99.90;;;;;;4938512;29;20229;-66
2021/07/25 07:56:47;;;;;;;6.50;5.90;;;25.30;99.90;;;;;;4936135;29;20290;-66
2021/07/25 07:59:12;;;;;;;8.23;7.43;;;25.30;99.90;;;;;;4935929;29;20215;-66
2021/07/25 08:01:38;;;;;;;11.17;7.70;;;25.10;99.90;;;;;;4934954;29;20248;-65
2021/07/25 08:04:04;;;;;;;9.80;8.80;;;24.80;99.90;;;;;;4936118;29;20261;-65
2021/07/25 08:06:29;;;;;;;9.73;8.43;;;24.40;99.90;;;;;;4944328;29;20277;-65
2021/07/25 08:08:55;;;;;;;7.70;7.00;;;24.20;99.90;;;;;;4955431;28;20186;-65
2021/07/25 08:11:21;;;;;;;8.93;8.13;;;24.20;99.90;;;;;;4955817;29;20170;-65
2021/07/25 08:13:46;;;;;;;8.60;7.80;;;24.30;99.90;;;;;;4955398;29;20244;-67
2021/07/25 08:16:12;;;;;;;8.00;7.30;;;24.40;99.90;;;;;;4956057;29;20174;-67
2021/07/25 08:18:39;;;;;;;10.87;8.90;;;24.60;99.90;;;;;;4955673;28;20205;-66
2021/07/25 08:21:05;;;;;;;11.50;9.40;;;24.90;99.90;;;;;;4954913;29;20496;-66
2021/07/25 08:23:31;;;;;;;10.53;9.53;;;24.70;99.90;;;;;;4954959;29;20417;-66
2021/07/25 08:25:57;;;;;;;10.20;8.77;;;24.60;99.90;;;;;;4954758;29;20460;-66
2021/07/25 08:28:22;;;;;;;8.73;7.63;;;24.40;99.90;;;;;;4956010;28;20922;-66
2021/07/25 08:30:48;;;;;;;8.83;8.03;;;24.40;99.90;;;;;;4958902;29;20166;-66
2021/07/25 08:33:14;;;;;;;7.57;6.83;;;24.40;99.90;;;;;;4959668;29;20173;-66
2021/07/25 08:35:40;;;;;;;8.13;7.33;;;24.50;99.90;;;;;;4958752;29;20178;-66
2021/07/25 08:38:06;;;;;;;10.50;7.93;;;24.70;99.90;;;;;;4958815;28;20193;-66
2021/07/25 08:40:33;;;;;;;8.30;7.50;;;24.80;99.90;;;;;;4958557;29;20196;-66
2021/07/25 08:43:07;;;;;;;8.00;7.33;;;24.60;99.90;;;;;;4958943;29;20460;-66
2021/07/25 08:45:34;;;;;;;8.07;7.27;;;25.00;99.90;;;;;;4959165;29;20992;-66
2021/07/25 08:48:05;;;;;;;9.03;7.77;;;25.30;99.90;;;;;;4941903;29;20489;-66
2021/07/25 08:50:35;;;;;;;8.83;7.10;;;25.40;99.90;;;;;;4939332;29;20399;-67
2021/07/25 08:53:03;;;;;;;7.20;6.53;;;25.50;99.90;;;;;;4939577;29;20772;-66
2021/07/25 08:55:31;;;;;;;7.83;7.13;;;25.40;99.90;;;;;;4939366;29;20414;-66
2021/07/25 08:58:07;;;;;;;7.03;6.43;;;25.30;99.90;;;;;;4939388;29;20477;-66
2021/07/25 09:00:33;;;;;;;7.37;6.70;;;25.40;99.90;;;;;;4939380;29;20387;-67
2021/07/25 09:03:00;;;;;;;7.00;6.40;;;25.50;99.90;;;;;;4939322;29;20759;-66
2021/07/25 09:05:26;;;;;;;7.77;7.03;;;25.50;99.90;;;;;;4939895;29;20450;-66
2021/07/25 09:07:52;;;;;;;9.03;8.13;;;25.30;99.90;;;;;;4958110;28;20433;-66
2021/07/25 09:10:20;;;;;;;6.70;6.10;;;25.10;99.90;;;;;;4958180;29;20171;-66
2021/07/25 09:12:48;;;;;;;7.03;6.43;;;25.10;99.90;;;;;;4958381;29;20496;-66
2021/07/25 09:15:38;;;;;;;8.10;7.30;;;25.10;99.90;;;;;;4958082;29;20500;-65
2021/07/25 09:18:05;;;;;;;8.50;7.50;;;25.00;99.90;;;;;;4957989;28;20440;-66
2021/07/25 09:20:40;;;;;;;7.67;6.70;;;25.20;99.90;;;;;;4958053;29;20401;-65
2021/07/25 09:23:07;;;;;;;8.63;7.83;;;25.30;99.90;;;;;;4957949;29;20413;-66
2021/07/25 09:25:39;;;;;;;7.87;6.53;;;25.40;99.90;;;;;;4957759;29;20445;-66
2021/07/25 09:28:12;;;;;;;7.53;6.87;;;25.50;99.90;;;;;;4957900;28;20788;-65
2021/07/25 09:30:38;;;;;;;8.30;7.50;;;25.40;99.90;;;;;;4958099;29;20479;-65
2021/07/25 09:33:32;;;;;;;8.13;7.43;;;25.50;99.90;;;;;;4956482;29;20446;-66
2021/07/25 09:36:11;;;;;;;8.50;7.53;;;25.20;99.90;;;;;;4957641;28;20444;-65
2021/07/25 09:38:37;;;;;;;8.87;7.97;;;25.00;99.90;;;;;;4956452;28;20430;-66
2021/07/25 09:41:24;;;;;;;8.77;7.97;;;25.20;99.90;;;;;;4956375;28;20394;-66
2021/07/25 09:44:05;;;;;;;8.67;7.87;;;25.40;99.90;;;;;;4958080;29;20382;-66
2021/07/25 09:46:49;;;;;;;10.33;8.53;;;25.30;99.90;;;;;;4957798;29;20429;-66
2021/07/25 09:49:15;;;;;;;10.40;7.30;;;25.10;99.90;;;;;;4957431;28;20433;-66
2021/07/25 09:51:41;;;;;;;8.60;7.80;;;24.90;99.90;;;;;;4943708;29;20449;-66
2021/07/25 09:54:07;;;;;;;8.00;7.27;;;24.90;99.90;;;;;;4938251;29;20493;-66
2021/07/25 09:56:33;;;;;;;7.53;6.83;;;24.40;99.90;;;;;;4939806;29;20415;-65
2021/07/25 09:58:59;;;;;;;9.37;8.40;;;24.60;99.90;;;;;;4939564;29;20699;-66
2021/07/25 10:01:39;;;;;;;7.07;6.47;;;24.60;99.90;;;;;;4938887;29;20450;-66
2021/07/25 10:04:11;;;;;;;8.57;7.70;;;24.70;99.90;;;;;;4938034;29;20916;-66
2021/07/25 10:06:40;;;;;;;7.80;7.00;;;24.90;99.90;;;;;;4947376;29;20971;-66
2021/07/25 10:09:08;;;;;;;8.20;7.23;;;24.80;99.90;;;;;;4951948;28;20487;-66
2021/07/25 10:11:35;;;;;;;7.97;7.27;;;24.50;99.90;;;;;;4938061;29;20469;-66
2021/07/25 10:14:01;;;;;;;7.30;6.70;;;24.50;99.90;;;;;;4938133;29;20410;-66
2021/07/25 10:16:27;;;;;;;7.00;6.40;;;24.40;99.90;;;;;;4937764;29;20434;-66
2021/07/25 10:18:55;;;;;;;7.20;6.20;;;24.30;99.90;;;;;;4937940;29;20931;-66
2021/07/25 10:21:22;;;;;;;7.13;6.00;;;24.20;99.90;;;;;;4937490;29;20163;-66
2021/07/25 10:23:55;;;;;;;9.03;7.60;;;23.90;99.90;;;;;;4937781;29;20852;-66
2021/07/25 10:26:27;;;;;;;6.67;6.03;;;23.80;99.90;;;;;;4938042;29;20442;-66
2021/07/25 10:28:54;;;;;;;5.90;5.40;;;23.70;99.90;;;;;;4938055;29;20427;-66
2021/07/25 10:31:23;;;;;;;5.80;5.20;;;23.60;99.90;;;;;;4937662;29;20442;-66
2021/07/25 10:33:51;;;;;;;7.10;6.40;;;23.50;99.90;;;;;;4924966;29;20419;-66
2021/07/25 10:36:17;;;;;;;5.53;5.03;;;23.20;99.90;;;;;;4925272;29;20421;-66
2021/07/25 10:38:45;;;;;;;6.80;5.73;;;23.30;99.90;;;;;;4937207;29;20433;-65
2021/07/25 10:41:15;;;;;;;5.83;5.33;;;23.20;99.90;;;;;;4937371;29;20911;-66
2021/07/25 10:43:40;;;;;;;6.77;6.17;;;23.30;99.90;;;;;;4936195;29;20505;-66
2021/07/25 10:46:16;;;;;;;5.57;5.17;;;23.30;99.90;;;;;;4937267;29;20561;-65
2021/07/25 10:49:05;;;;;;;6.00;5.40;;;23.30;99.90;;;;;;4937397;29;20746;-66
2021/07/25 10:51:36;;;;;;;6.60;6.00;;;23.30;99.90;;;;;;4937405;29;20430;-66
2021/07/25 10:54:19;;;;;;;6.40;5.80;;;23.30;99.90;;;;;;4937133;29;20410;-65
2021/07/25 10:57:06;;;;;;;7.03;5.80;;;23.30;99.90;;;;;;4937872;29;20827;-65
2021/07/25 10:59:55;;;;;;;6.67;6.07;;;23.30;99.90;;;;;;4937354;29;20413;-66
2021/07/25 11:02:24;;;;;;;6.33;5.57;;;23.40;99.90;;;;;;4937466;29;20394;-66
2021/07/25 11:04:55;;;;;;;6.63;6.10;;;23.30;99.90;;;;;;4937408;29;20399;-66
2021/07/25 11:07:24;;;;;;;6.60;6.00;;;23.30;99.90;;;;;;4952541;28;20831;-66
2021/07/25 11:10:00;;;;;;;6.10;5.07;;;23.30;99.90;;;;;;4956301;29;20406;-66
2021/07/25 11:12:46;;;;;;;6.33;5.70;;;23.30;99.90;;;;;;4956555;29;20476;-66
2021/07/25 11:15:31;;;;;;;8.30;5.30;;;23.20;99.90;;;;;;4956197;29;20927;-66
2021/07/25 11:17:58;;;;;;;6.40;5.80;;;23.10;99.90;;;;;;4956430;28;20425;-66
2021/07/25 11:20:44;;;;;;;6.70;6.10;;;23.20;99.90;;;;;;4956271;29;20448;-66
2021/07/25 11:23:35;;;;;;;7.27;5.70;;;23.40;99.90;;;;;;4956452;29;20934;-66
2021/07/25 11:26:32;;;;;;;6.50;5.73;;;23.70;99.90;;;;;;4955848;29;20438;-66
2021/07/25 11:29:02;;;;;;;6.40;5.10;;;24.00;99.90;;;;;;4956652;28;20833;-66
2021/07/25 11:31:43;;;;;;;6.17;5.60;;;24.10;99.90;;;;;;4956226;29;20394;-66
2021/07/25 11:34:12;;;;;;;6.20;5.60;;;24.00;99.90;;;;;;4956637;29;20406;-66
2021/07/25 11:36:38;;;;;;;6.90;6.27;;;23.80;99.90;;;;;;4955285;29;20414;-66
2021/07/25 11:39:06;;;;;;;8.10;7.40;;;23.90;99.90;;;;;;4954242;28;20438;-66
2021/07/25 11:41:36;;;;;;;7.63;6.93;;;24.00;99.90;;;;;;4955228;29;20189;-66
2021/07/25 11:44:03;;;;;;;6.93;6.10;;;23.90;99.90;;;;;;4955621;29;20414;-66
2021/07/25 11:46:30;;;;;;;7.43;6.73;;;24.00;99.90;;;;;;4943927;29;20889;-66
2021/07/25 11:49:02;;;;;;;7.80;5.90;;;24.10;99.90;;;;;;4936322;29;20426;-66
2021/07/25 11:51:28;;;;;;;6.87;6.20;;;24.30;99.90;;;;;;4935720;29;20405;-66
2021/07/25 11:53:54;;;;;;;6.60;6.03;;;24.50;99.90;;;;;;4935972;29;20399;-66
2021/07/25 11:56:20;;;;;;;6.90;6.30;;;24.50;99.90;;;;;;4936001;29;20604;-66
2021/07/25 11:58:58;;;;;;;9.23;7.27;;;24.70;99.90;;;;;;4935806;29;20477;-66
2021/07/25 12:01:24;;;;;;;7.63;6.93;;;24.70;99.90;;;;;;4936706;29;20185;-66
2021/07/25 12:03:50;;;;;;;6.53;5.70;;;24.70;99.90;;;;;;4935456;29;20417;-66
2021/07/25 12:06:17;;;;;;;6.43;5.83;;;24.80;99.90;;;;;;4942725;29;20198;-66
2021/07/25 12:09:06;;;;;;;6.40;5.87;;;24.70;99.90;;;;;;4955565;28;20197;-66
2021/07/25 12:11:33;;;;;;;6.60;6.07;;;24.50;99.90;;;;;;4954760;29;20930;-66
2021/07/25 12:13:59;;;;;;;10.70;7.40;;;24.50;99.90;;;;;;4955343;29;20398;-66
2021/07/25 12:16:25;;;;;;;7.17;6.57;;;24.30;99.90;;;;;;4955255;29;20412;-66
2021/07/25 12:18:51;;;;;;;8.57;6.90;;;24.20;99.90;;;;;;4954817;28;20201;-66
2021/07/25 12:21:31;;;;;;;7.83;7.03;;;24.20;99.90;;;;;;4954733;29;20409;-66
2021/07/25 12:24:00;;;;;;;7.67;7.00;;;24.20;99.90;;;;;;4955209;28;20178;-66
2021/07/25 12:26:42;;;;;;;7.67;6.97;;;24.10;99.90;;;;;;4954912;29;20497;-67
2021/07/25 12:29:45;;;;;;;6.83;6.10;;;24.10;99.90;;;;;;4954922;28;20430;-66
2021/07/25 12:32:33;;;;;;;8.00;7.20;;;23.90;99.90;;;;;;4955058;29;20402;-66
2021/07/25 12:35:08;;;;;;;8.07;7.23;;;23.60;99.90;;;;;;4955302;29;20389;-66
2021/07/25 12:37:40;;;;;;;6.80;5.70;;;23.60;99.90;;;;;;4954423;28;20900;-66
2021/07/25 12:40:15;;;;;;;6.30;5.80;;;23.60;99.90;;;;;;4954861;29;20403;-66
2021/07/25 12:42:42;;;;;;;7.10;6.40;;;23.60;99.90;;;;;;4954771;29;20381;-66
2021/07/25 12:45:27;;;;;;;6.70;6.20;;;23.70;99.90;;;;;;4935205;29;20974;-66
2021/07/25 12:48:13;;;;;;;6.90;6.30;;;23.90;99.90;;;;;;4918665;29;20522;-66
2021/07/25 12:53:43;;;;;;;10.40;7.83;;;24.00;99.90;;;;;;4933179;29;20429;-66
2021/07/25 12:56:13;;;;;;;7.33;6.57;;;23.90;99.90;;;;;;4935412;29;20410;-66